Time;durP1;ratioP1;P1;durP2;ratioP2;P2;SDS_P1;SDS_P2;PMS_P1;PMS_P2;Temp;Humidity;BMP_temperature;BMP_pressure;BME280_temperature;BME280_humidity;BME280_pressure;Samples;Min_cycle;Max_cycle;Signal;HPM_P1;HPM_P2
2023/06/06 00:03:10;;;;;;;2.58;0.90;;;22.10;84.00;;;;;;10982582;32;20427;-71
2023/06/06 00:09:13;;;;;;;5.50;1.48;;;22.10;84.00;;;;;;10982375;32;20049;-71
2023/06/06 00:15:38;;;;;;;2.85;1.67;;;22.10;83.80;;;;;;10982051;32;20053;-71
2023/06/06 00:21:40;;;;;;;2.40;1.30;;;22.10;83.50;;;;;;10982006;32;20019;-72
2023/06/06 00:27:43;;;;;;;1.87;1.45;;;22.10;83.50;;;;;;10981358;32;20037;-71
2023/06/06 00:33:45;;;;;;;4.10;1.90;;;22.10;83.50;;;;;;10981301;32;20072;-71
2023/06/06 00:39:47;;;;;;;2.05;1.33;;;22.00;83.50;;;;;;10981225;32;20006;-70
2023/06/06 00:45:50;;;;;;;4.37;2.53;;;22.00;83.70;;;;;;10981021;32;20022;-71
2023/06/06 00:51:53;;;;;;;4.07;2.40;;;22.00;83.60;;;;;;10980219;32;20075;-71
2023/06/06 00:57:55;;;;;;;4.10;2.55;;;21.90;83.60;;;;;;10980724;32;20062;-71
2023/06/06 01:04:07;;;;;;;2.37;1.73;;;21.90;83.70;;;;;;10966772;32;20031;-71
2023/06/06 01:10:10;;;;;;;4.05;2.22;;;21.90;83.70;;;;;;10980283;32;20019;-72
2023/06/06 01:16:18;;;;;;;2.80;1.92;;;21.90;83.80;;;;;;10980089;32;20404;-71
2023/06/06 01:22:22;;;;;;;4.93;1.92;;;21.90;84.00;;;;;;10979918;32;20049;-70
2023/06/06 01:28:25;;;;;;;2.80;1.60;;;21.90;84.20;;;;;;10979727;32;20336;-71
2023/06/06 01:34:35;;;;;;;2.37;1.70;;;21.80;84.30;;;;;;10979703;32;20030;-70
2023/06/06 01:40:39;;;;;;;2.80;1.65;;;21.80;84.30;;;;;;10965382;32;20023;-71
2023/06/06 01:46:41;;;;;;;3.05;1.60;;;21.80;84.20;;;;;;10979426;32;20014;-70
2023/06/06 01:52:44;;;;;;;6.47;2.00;;;21.80;84.00;;;;;;10977811;32;20027;-70
2023/06/06 01:58:46;;;;;;;2.60;1.48;;;21.80;83.80;;;;;;10979244;32;20034;-71
2023/06/06 02:04:48;;;;;;;5.03;0.98;;;21.80;83.70;;;;;;10971559;32;20027;-73
2023/06/06 02:10:50;;;;;;;2.00;1.60;;;21.80;83.80;;;;;;10986769;32;20438;-70
2023/06/06 02:16:52;;;;;;;1.55;0.93;;;21.70;84.00;;;;;;10986399;32;20053;-70
2023/06/06 02:22:54;;;;;;;12.77;1.70;;;21.70;83.90;;;;;;10986286;32;20026;-71
2023/06/06 02:28:57;;;;;;;3.08;1.33;;;21.80;84.00;;;;;;10986081;32;20019;-71
2023/06/06 02:34:59;;;;;;;2.17;1.30;;;21.70;84.00;;;;;;10972070;32;20073;-70
2023/06/06 02:41:01;;;;;;;2.58;1.40;;;21.70;84.20;;;;;;10985619;32;20332;-70
2023/06/06 02:47:05;;;;;;;1.35;0.93;;;21.80;83.90;;;;;;10971563;32;20034;-70
2023/06/06 02:53:08;;;;;;;5.00;1.37;;;21.70;83.80;;;;;;10971707;32;20037;-70
2023/06/06 02:59:10;;;;;;;2.05;1.58;;;21.70;83.80;;;;;;10984907;32;20049;-70
2023/06/06 03:05:13;;;;;;;3.45;1.83;;;21.60;83.80;;;;;;10984703;32;20033;-70
2023/06/06 03:11:17;;;;;;;3.97;1.45;;;21.50;83.80;;;;;;10983241;32;20088;-70
2023/06/06 03:17:18;;;;;;;8.13;2.47;;;21.40;83.90;;;;;;10983618;32;20045;-70
2023/06/06 03:23:22;;;;;;;5.87;2.20;;;21.30;83.90;;;;;;10983887;32;20045;-71
2023/06/06 03:29:24;;;;;;;6.97;1.80;;;21.40;84.10;;;;;;10983987;32;20018;-70
2023/06/06 03:35:28;;;;;;;2.70;1.92;;;21.50;84.00;;;;;;10983702;32;20044;-70
2023/06/06 03:41:31;;;;;;;2.67;1.67;;;21.40;83.90;;;;;;10981194;32;20424;-71
2023/06/06 03:47:33;;;;;;;2.28;1.48;;;21.50;84.00;;;;;;10983348;32;20030;-70
2023/06/06 03:53:35;;;;;;;2.87;1.77;;;21.50;84.30;;;;;;10983633;32;20038;-70
2023/06/06 03:59:39;;;;;;;4.82;2.00;;;21.40;84.20;;;;;;10983441;32;20105;-70
2023/06/06 04:05:43;;;;;;;3.75;2.37;;;21.40;84.20;;;;;;10983751;32;20025;-71
2023/06/06 04:11:45;;;;;;;2.60;1.77;;;21.40;84.10;;;;;;10982327;32;20054;-71
2023/06/06 04:17:48;;;;;;;1.73;1.23;;;21.40;84.00;;;;;;10982213;32;20040;-71
2023/06/06 04:23:50;;;;;;;6.87;3.55;;;21.50;84.10;;;;;;10982224;32;20091;-70
2023/06/06 04:29:53;;;;;;;5.25;3.03;;;21.50;84.10;;;;;;10981730;32;20022;-70
2023/06/06 04:36:00;;;;;;;3.03;2.03;;;21.50;84.00;;;;;;10981475;32;20018;-70
2023/06/06 04:42:09;;;;;;;2.90;1.87;;;21.50;83.80;;;;;;10981320;32;20329;-70
2023/06/06 04:48:12;;;;;;;2.58;1.62;;;21.40;83.80;;;;;;10980968;32;20056;-70
2023/06/06 04:54:14;;;;;;;3.83;2.67;;;21.40;83.90;;;;;;10978234;32;20019;-70
2023/06/06 05:00:17;;;;;;;9.30;2.95;;;21.40;84.00;;;;;;10981916;32;20344;-71
2023/06/06 05:06:19;;;;;;;7.07;2.80;;;21.50;84.00;;;;;;10981801;32;20011;-71
2023/06/06 05:12:21;;;;;;;3.33;1.92;;;21.60;84.00;;;;;;10980348;32;20007;-71
2023/06/06 05:18:24;;;;;;;2.70;2.10;;;21.60;84.20;;;;;;10980777;32;20043;-72
2023/06/06 05:24:25;;;;;;;6.30;1.95;;;21.60;84.50;;;;;;10980484;32;20072;-72
2023/06/06 05:30:27;;;;;;;2.67;1.98;;;21.50;84.70;;;;;;10978940;32;20044;-71
2023/06/06 05:36:29;;;;;;;3.10;1.87;;;21.50;84.70;;;;;;10965249;32;20065;-72
2023/06/06 05:42:32;;;;;;;3.85;2.22;;;21.60;84.90;;;;;;10978440;32;20019;-71
2023/06/06 05:48:33;;;;;;;6.55;3.00;;;21.50;84.80;;;;;;10980154;32;20045;-71
2023/06/06 05:54:35;;;;;;;2.67;1.62;;;21.50;85.00;;;;;;10980497;32;20049;-74
2023/06/06 06:00:38;;;;;;;3.87;2.17;;;21.50;84.90;;;;;;10977443;32;20045;-73
2023/06/06 06:06:40;;;;;;;4.65;2.58;;;21.60;84.80;;;;;;10979460;32;20298;-71
2023/06/06 06:12:42;;;;;;;4.03;1.42;;;21.60;84.90;;;;;;10975724;32;20038;-71
2023/06/06 06:18:44;;;;;;;3.00;1.60;;;21.50;84.90;;;;;;10975503;32;20128;-71
2023/06/06 06:24:46;;;;;;;3.58;1.60;;;21.70;84.80;;;;;;10977763;32;20058;-71
2023/06/06 06:30:48;;;;;;;1.48;1.27;;;21.80;84.50;;;;;;10976124;32;20027;-74
2023/06/06 06:36:51;;;;;;;2.50;1.52;;;21.80;84.30;;;;;;10980391;32;20027;-71
2023/06/06 06:42:54;;;;;;;2.97;1.50;;;21.90;84.10;;;;;;10979218;32;20041;-71
2023/06/06 06:48:58;;;;;;;3.08;2.15;;;21.90;84.10;;;;;;10979732;32;20333;-72
2023/06/06 06:55:01;;;;;;;3.03;1.55;;;22.00;84.30;;;;;;10986518;32;20041;-71
2023/06/06 07:01:05;;;;;;;2.97;2.35;;;22.10;84.30;;;;;;10985350;32;20022;-76
2023/06/06 07:07:07;;;;;;;3.83;1.85;;;22.20;84.10;;;;;;10980556;32;20324;-72
2023/06/06 07:13:09;;;;;;;3.03;1.90;;;22.30;84.00;;;;;;10984477;32;20096;-71
2023/06/06 07:19:11;;;;;;;2.62;1.48;;;22.40;84.20;;;;;;10984853;32;20018;-73
2023/06/06 07:25:14;;;;;;;2.58;1.48;;;22.50;83.90;;;;;;10989644;27;20057;-72
2023/06/06 07:31:16;;;;;;;4.70;2.30;;;22.60;83.50;;;;;;10984382;32;20495;-70
2023/06/06 07:37:18;;;;;;;3.37;1.92;;;22.70;83.30;;;;;;10984833;32;20027;-71
2023/06/06 07:43:20;;;;;;;2.50;1.67;;;22.70;83.20;;;;;;10971806;32;20027;-72
2023/06/06 07:49:22;;;;;;;4.12;2.05;;;22.80;83.40;;;;;;10983824;32;20022;-73
2023/06/06 07:55:24;;;;;;;3.60;1.52;;;22.70;83.10;;;;;;10969022;32;20356;-71
2023/06/06 08:01:27;;;;;;;1.95;1.48;;;22.70;83.10;;;;;;10983104;32;20069;-73
2023/06/06 08:07:29;;;;;;;3.00;1.60;;;22.70;83.20;;;;;;10983870;32;20046;-72
2023/06/06 08:13:31;;;;;;;2.03;1.45;;;22.80;83.20;;;;;;10984156;32;20034;-74
2023/06/06 08:19:34;;;;;;;0.93;0.70;;;23.00;83.00;;;;;;10981253;32;20413;-72
2023/06/06 08:25:42;;;;;;;12.63;1.75;;;23.50;82.30;;;;;;10979017;32;20046;-75
2023/06/06 08:31:44;;;;;;;2.75;1.70;;;23.70;81.70;;;;;;10982207;32;20061;-74
2023/06/06 08:37:47;;;;;;;2.70;1.62;;;23.70;81.50;;;;;;10982603;32;20388;-73
2023/06/06 08:43:51;;;;;;;2.50;1.52;;;23.40;82.30;;;;;;10981467;32;20042;-77
2023/06/06 08:49:54;;;;;;;2.15;1.52;;;23.30;82.50;;;;;;10967967;32;20033;-73
2023/06/06 08:55:57;;;;;;;3.35;2.05;;;23.30;82.70;;;;;;10981979;32;20049;-74
2023/06/06 09:01:59;;;;;;;2.42;1.58;;;23.30;82.50;;;;;;10981933;32;20019;-73
2023/06/06 09:08:01;;;;;;;2.65;1.73;;;23.20;82.70;;;;;;10981695;32;20041;-74
2023/06/06 09:14:07;;;;;;;2.25;1.48;;;23.10;82.70;;;;;;10980407;32;20018;-72
2023/06/06 09:20:11;;;;;;;2.10;1.25;;;23.00;82.90;;;;;;10953582;32;20053;-73
2023/06/06 09:26:21;;;;;;;4.03;2.33;;;23.00;83.00;;;;;;10966821;32;20018;-74
2023/06/06 09:32:32;;;;;;;3.78;1.73;;;23.10;83.00;;;;;;10980316;32;20022;-73
2023/06/06 09:38:35;;;;;;;6.87;2.45;;;23.10;82.60;;;;;;10980605;32;20049;-73
2023/06/06 09:44:42;;;;;;;3.75;1.55;;;23.10;82.70;;;;;;10976707;32;20022;-72
2023/06/06 09:50:44;;;;;;;2.83;2.12;;;23.20;82.40;;;;;;10965455;32;20030;-74
2023/06/06 09:56:47;;;;;;;3.10;1.80;;;23.70;82.10;;;;;;10980658;32;20085;-75
2023/06/06 10:03:01;;;;;;;3.30;1.98;;;24.00;80.80;;;;;;10965204;32;20030;-72
2023/06/06 10:09:06;;;;;;;5.60;2.28;;;23.80;80.90;;;;;;10979495;32;20027;-73
2023/06/06 10:15:28;;;;;;;4.03;2.33;;;23.70;81.30;;;;;;10979544;32;20050;-72
2023/06/06 10:21:32;;;;;;;2.72;1.85;;;23.60;81.60;;;;;;10979166;32;20022;-72
2023/06/06 10:27:58;;;;;;;2.78;2.25;;;23.60;81.90;;;;;;10986249;32;20373;-72
2023/06/06 10:34:06;;;;;;;3.97;2.17;;;23.50;81.90;;;;;;10986107;32;20019;-72
2023/06/06 10:40:09;;;;;;;5.57;2.47;;;23.40;82.20;;;;;;10986362;32;20019;-72
2023/06/06 10:46:12;;;;;;;1.75;1.40;;;23.40;82.10;;;;;;10986765;32;20031;-72
2023/06/06 10:52:14;;;;;;;4.00;2.40;;;23.50;82.00;;;;;;10986589;32;20031;-73
2023/06/06 10:58:26;;;;;;;2.20;1.65;;;23.80;81.60;;;;;;10981593;32;20100;-72
2023/06/06 11:04:37;;;;;;;3.92;3.03;;;23.90;81.10;;;;;;10986127;32;20045;-73
2023/06/06 11:10:46;;;;;;;3.08;1.58;;;23.90;81.20;;;;;;10985565;32;20018;-72
2023/06/06 11:16:48;;;;;;;2.30;1.25;;;24.10;80.90;;;;;;10970866;32;20049;-73
2023/06/06 11:23:05;;;;;;;2.03;1.55;;;24.30;80.60;;;;;;10984007;32;20018;-72
2023/06/06 11:29:10;;;;;;;3.28;1.75;;;24.90;79.20;;;;;;10969931;32;20034;-73
2023/06/06 11:35:20;;;;;;;3.03;2.03;;;25.20;78.00;;;;;;10983048;32;20026;-74
2023/06/06 11:41:22;;;;;;;3.58;2.45;;;25.50;76.90;;;;;;10979543;32;20075;-74
2023/06/06 11:47:31;;;;;;;3.50;1.95;;;26.20;75.80;;;;;;10983208;32;20053;-73
2023/06/06 11:53:33;;;;;;;5.62;1.90;;;26.60;75.80;;;;;;10983017;32;20049;-75
2023/06/06 11:59:36;;;;;;;3.37;1.87;;;26.70;74.80;;;;;;10982795;32;20056;-73
2023/06/06 12:05:38;;;;;;;3.87;2.10;;;26.30;75.60;;;;;;10982524;32;20022;-72
2023/06/06 12:11:56;;;;;;;18.25;4.28;;;25.90;75.50;;;;;;10965481;32;20031;-74
2023/06/06 12:18:02;;;;;;;7.75;3.22;;;25.70;76.20;;;;;;10978662;32;20053;-72
2023/06/06 12:24:21;;;;;;;5.15;2.83;;;25.20;76.00;;;;;;10981735;32;20019;-72
2023/06/06 12:30:31;;;;;;;3.92;2.47;;;24.70;78.00;;;;;;10967671;32;20057;-72
2023/06/06 12:36:34;;;;;;;5.62;2.25;;;24.10;78.30;;;;;;10981226;32;20045;-73
2023/06/06 12:42:36;;;;;;;12.23;3.25;;;23.50;79.20;;;;;;10967826;32;20050;-73
2023/06/06 12:48:57;;;;;;;6.78;3.55;;;23.20;81.00;;;;;;10964488;32;20336;-76
2023/06/06 12:54:59;;;;;;;7.78;3.47;;;22.70;82.40;;;;;;10967962;32;20328;-73
2023/06/06 13:01:02;;;;;;;11.82;3.78;;;22.40;83.30;;;;;;10976490;32;20010;-74
2023/06/06 13:07:06;;;;;;;3.83;1.65;;;22.40;83.40;;;;;;10980242;32;20019;-74
2023/06/06 13:13:27;;;;;;;6.20;1.70;;;22.30;83.20;;;;;;10980174;32;20010;-72
2023/06/06 13:19:29;;;;;;;3.70;2.30;;;22.10;82.90;;;;;;10980049;32;20023;-72
2023/06/06 13:25:32;;;;;;;4.65;2.25;;;22.10;83.10;;;;;;10979887;32;20328;-71
2023/06/06 13:31:34;;;;;;;3.08;1.62;;;22.10;83.10;;;;;;10978643;32;20095;-72
2023/06/06 13:37:39;;;;;;;2.80;1.52;;;22.00;83.40;;;;;;10979567;32;20427;-72
2023/06/06 13:43:42;;;;;;;6.45;2.67;;;22.00;83.80;;;;;;10979278;32;20045;-73
2023/06/06 13:49:45;;;;;;;2.72;1.70;;;22.10;83.50;;;;;;10964521;32;20033;-73
2023/06/06 13:55:48;;;;;;;4.22;1.85;;;22.10;83.30;;;;;;10976942;32;20048;-73
2023/06/06 14:02:04;;;;;;;1.95;1.23;;;22.10;83.30;;;;;;10986366;32;20010;-73
2023/06/06 14:08:08;;;;;;;2.03;1.30;;;22.10;83.30;;;;;;10986998;32;20076;-74
2023/06/06 14:14:31;;;;;;;1.65;1.00;;;22.10;83.40;;;;;;10986484;32;20026;-73
2023/06/06 14:20:48;;;;;;;1.30;0.88;;;22.20;83.30;;;;;;10986033;32;20052;-74
2023/06/06 14:26:50;;;;;;;2.92;1.00;;;22.20;83.40;;;;;;10986074;32;20053;-73
2023/06/06 14:32:54;;;;;;;1.42;1.27;;;22.30;83.30;;;;;;10986144;32;20015;-73
2023/06/06 14:38:57;;;;;;;1.50;1.08;;;22.30;83.30;;;;;;10985835;32;20026;-73
2023/06/06 14:45:02;;;;;;;1.02;0.80;;;22.30;83.40;;;;;;10985566;32;20045;-73
2023/06/06 14:51:04;;;;;;;1.17;1.00;;;22.30;83.30;;;;;;10984830;32;20022;-73
2023/06/06 14:57:06;;;;;;;2.08;1.17;;;22.20;83.50;;;;;;10984253;32;20104;-74
2023/06/06 15:03:09;;;;;;;2.47;1.52;;;22.30;83.60;;;;;;10982536;32;20120;-74
2023/06/06 15:09:11;;;;;;;1.98;1.23;;;22.40;83.40;;;;;;10970180;32;20026;-74
2023/06/06 15:15:13;;;;;;;1.70;1.30;;;22.40;83.50;;;;;;10984627;32;20038;-73
2023/06/06 15:21:21;;;;;;;7.80;2.20;;;22.50;83.50;;;;;;10982425;32;20057;-74
2023/06/06 15:27:24;;;;;;;4.47;2.93;;;22.50;83.60;;;;;;10954549;27;20049;-74
2023/06/06 15:33:26;;;;;;;4.65;3.05;;;22.60;83.40;;;;;;10945451;32;20035;-74
2023/06/06 15:39:28;;;;;;;3.28;2.15;;;22.70;83.60;;;;;;10946590;32;20105;-74
2023/06/06 15:45:35;;;;;;;4.37;2.58;;;22.70;83.70;;;;;;10919999;32;20053;-75
2023/06/06 15:51:39;;;;;;;3.78;2.20;;;22.80;83.70;;;;;;10945563;32;20041;-75
2023/06/06 15:57:42;;;;;;;5.62;2.62;;;22.80;83.80;;;;;;10945416;32;20049;-75
2023/06/06 16:03:44;;;;;;;5.03;2.83;;;22.80;84.00;;;;;;10945260;32;20019;-75
2023/06/06 16:09:46;;;;;;;3.72;2.40;;;22.80;83.80;;;;;;10945125;32;20023;-76
2023/06/06 16:15:48;;;;;;;4.37;2.87;;;22.80;83.50;;;;;;10931237;32;20061;-76
2023/06/06 16:21:50;;;;;;;6.10;3.25;;;22.70;83.40;;;;;;10940196;32;20023;-76
2023/06/06 16:27:52;;;;;;;4.35;2.72;;;22.70;83.30;;;;;;10930105;32;20028;-76
2023/06/06 16:33:54;;;;;;;4.18;2.65;;;22.70;83.30;;;;;;10923885;32;20071;-76
2023/06/06 16:39:57;;;;;;;4.18;2.12;;;22.70;83.20;;;;;;10925588;32;20026;-76
2023/06/06 16:45:59;;;;;;;5.32;3.08;;;22.80;83.00;;;;;;10943456;32;20435;-76
2023/06/06 16:52:01;;;;;;;3.70;2.40;;;22.80;82.70;;;;;;10943334;32;20023;-76
2023/06/06 16:58:03;;;;;;;7.57;2.83;;;22.80;82.80;;;;;;10943138;32;20053;-76
2023/06/06 17:04:05;;;;;;;2.67;2.10;;;22.80;82.70;;;;;;10942934;32;20027;-76
2023/06/06 17:10:09;;;;;;;4.45;2.92;;;22.80;82.90;;;;;;10942885;32;20018;-76
2023/06/06 17:16:11;;;;;;;4.30;2.58;;;22.80;83.00;;;;;;10929143;32;20356;-76
2023/06/06 17:22:14;;;;;;;4.57;2.50;;;22.90;82.80;;;;;;10942368;32;20014;-75
2023/06/06 17:28:16;;;;;;;4.47;2.78;;;23.10;82.50;;;;;;10942134;32;20049;-75
2023/06/06 17:34:18;;;;;;;3.20;2.15;;;23.30;82.40;;;;;;10937411;32;20080;-75
2023/06/06 17:40:21;;;;;;;2.65;1.85;;;23.40;82.10;;;;;;10941845;32;20046;-75
2023/06/06 17:46:24;;;;;;;10.32;3.05;;;23.30;82.20;;;;;;10937811;32;20027;-75
2023/06/06 17:52:27;;;;;;;6.07;2.12;;;23.40;82.00;;;;;;10940679;32;20409;-75
2023/06/06 17:58:30;;;;;;;4.15;2.85;;;23.60;81.60;;;;;;10939567;32;20026;-75
2023/06/06 18:04:32;;;;;;;4.75;2.95;;;23.30;81.90;;;;;;10940839;32;20058;-74
2023/06/06 18:10:35;;;;;;;3.92;2.30;;;23.20;82.10;;;;;;10940726;32;20333;-75
2023/06/06 18:16:39;;;;;;;4.20;2.12;;;23.10;82.40;;;;;;10941483;32;20034;-75
2023/06/06 18:22:41;;;;;;;5.78;3.12;;;22.90;82.60;;;;;;10937134;32;20022;-74
2023/06/06 18:28:43;;;;;;;3.47;2.40;;;22.80;82.80;;;;;;10940920;32;20027;-74
2023/06/06 18:34:45;;;;;;;4.87;2.22;;;22.70;82.90;;;;;;10936796;32;20349;-74
2023/06/06 18:40:48;;;;;;;5.53;4.00;;;22.60;83.10;;;;;;10924892;32;20023;-75
2023/06/06 18:46:50;;;;;;;6.65;3.08;;;22.60;83.00;;;;;;10945915;32;20095;-74
2023/06/06 18:52:52;;;;;;;4.53;2.28;;;22.40;83.10;;;;;;10946920;32;20054;-74
2023/06/06 18:58:55;;;;;;;3.67;2.65;;;22.40;83.20;;;;;;10944656;32;20035;-74
2023/06/06 19:04:58;;;;;;;4.10;2.40;;;22.30;83.30;;;;;;10947077;32;20022;-74
2023/06/06 19:11:05;;;;;;;7.10;3.53;;;22.30;83.30;;;;;;10944384;32;20027;-74
2023/06/06 19:17:07;;;;;;;4.45;2.83;;;22.20;83.30;;;;;;10946647;32;20070;-74
2023/06/06 19:23:10;;;;;;;4.78;3.08;;;22.20;83.30;;;;;;10928338;32;20057;-75
2023/06/06 19:29:12;;;;;;;5.50;3.15;;;22.10;83.40;;;;;;10946306;32;20049;-75
2023/06/06 19:35:14;;;;;;;5.65;3.15;;;22.00;83.50;;;;;;10941930;32;20362;-75
2023/06/06 19:41:17;;;;;;;7.78;3.42;;;22.00;83.50;;;;;;10945807;32;20341;-75
2023/06/06 19:47:19;;;;;;;3.35;2.15;;;22.00;83.60;;;;;;10945777;32;20046;-75
2023/06/06 19:53:21;;;;;;;5.55;3.37;;;22.00;83.60;;;;;;10945571;32;20393;-75
2023/06/06 19:59:24;;;;;;;4.72;3.33;;;21.90;83.50;;;;;;10944720;32;20050;-75
2023/06/06 20:05:26;;;;;;;3.72;2.40;;;21.90;83.50;;;;;;10945295;32;20027;-75
2023/06/06 20:11:28;;;;;;;6.32;3.53;;;21.90;83.70;;;;;;10931081;32;20440;-75
2023/06/06 20:17:30;;;;;;;4.82;3.42;;;21.90;83.70;;;;;;10931908;32;20027;-75
2023/06/06 20:23:33;;;;;;;5.60;3.65;;;21.90;83.80;;;;;;10938198;32;20026;-74
2023/06/06 20:29:35;;;;;;;3.67;2.58;;;21.90;83.80;;;;;;10930281;32;20038;-75
2023/06/06 20:35:37;;;;;;;5.57;3.45;;;21.80;83.80;;;;;;10944132;32;20024;-75
2023/06/06 20:41:40;;;;;;;6.35;3.85;;;21.80;83.90;;;;;;10943959;32;20313;-75
2023/06/06 20:47:45;;;;;;;4.72;3.12;;;21.80;83.90;;;;;;10943719;32;20018;-75
2023/06/06 20:53:47;;;;;;;4.45;2.78;;;21.70;83.90;;;;;;10943537;32;20050;-75
2023/06/06 20:59:49;;;;;;;3.95;2.78;;;21.60;84.00;;;;;;10914905;32;20062;-75
2023/06/06 21:05:52;;;;;;;5.28;3.75;;;21.60;84.00;;;;;;10942814;32;20427;-75
2023/06/06 21:11:55;;;;;;;7.00;4.90;;;21.70;84.20;;;;;;10928546;32;20069;-75
2023/06/06 21:17:58;;;;;;;4.90;3.50;;;21.60;84.10;;;;;;10938867;32;20050;-75
2023/06/06 21:24:00;;;;;;;6.80;4.80;;;21.60;84.30;;;;;;10942350;32;20038;-75
2023/06/06 21:30:02;;;;;;;7.90;4.15;;;21.50;84.40;;;;;;10942359;32;20409;-75
2023/06/06 21:36:05;;;;;;;6.37;4.35;;;21.50;84.40;;;;;;10928698;32;20045;-76
2023/06/06 21:42:10;;;;;;;6.12;3.90;;;21.50;84.40;;;;;;10923692;32;20035;-76
2023/06/06 21:48:32;;;;;;;5.25;2.87;;;21.50;84.30;;;;;;10900815;32;20027;-75
2023/06/06 21:54:34;;;;;;;6.05;3.75;;;21.30;84.30;;;;;;10904666;32;20303;-76
2023/06/06 22:00:36;;;;;;;5.80;3.65;;;21.30;84.40;;;;;;10904216;32;20348;-75
2023/06/06 22:06:39;;;;;;;6.60;3.58;;;21.30;84.50;;;;;;10890502;32;20063;-76
2023/06/06 22:12:41;;;;;;;5.53;3.62;;;21.30;84.40;;;;;;10890420;32;20423;-75
2023/06/06 22:18:43;;;;;;;7.03;4.60;;;21.30;84.40;;;;;;10901532;32;20410;-75
2023/06/06 22:24:45;;;;;;;6.55;3.97;;;21.30;84.40;;;;;;10911043;32;20023;-75
2023/06/06 22:30:48;;;;;;;5.47;3.47;;;21.30;84.40;;;;;;10910930;32;20397;-75
2023/06/06 22:36:49;;;;;;;6.60;5.10;;;21.30;84.50;;;;;;10910755;32;20019;-75
2023/06/06 22:42:55;;;;;;;6.45;4.30;;;21.30;84.50;;;;;;10910497;32;20025;-75
2023/06/06 22:48:58;;;;;;;6.57;3.70;;;21.20;84.50;;;;;;10910294;32;20341;-75
2023/06/06 22:55:00;;;;;;;6.53;3.70;;;21.10;84.40;;;;;;10909896;32;20032;-76
2023/06/06 23:01:01;;;;;;;5.30;3.28;;;21.00;84.50;;;;;;10905892;32;20016;-76
2023/06/06 23:07:04;;;;;;;4.45;2.80;;;21.00;84.50;;;;;;10909654;32;20019;-76
2023/06/06 23:13:32;;;;;;;9.70;4.53;;;21.00;84.50;;;;;;10909433;32;20023;-76
2023/06/06 23:19:51;;;;;;;8.07;4.18;;;21.00;84.40;;;;;;10909222;32;20027;-75
2023/06/06 23:25:53;;;;;;;5.75;3.40;;;21.00;84.30;;;;;;10500520;27;12567745;-75
2023/06/06 23:31:55;;;;;;;7.00;5.00;;;21.00;84.30;;;;;;10828195;32;20020;-75
2023/06/06 23:38:05;;;;;;;7.25;4.28;;;21.00;84.30;;;;;;10830493;32;20062;-76
2023/06/06 23:44:09;;;;;;;5.62;4.07;;;21.00;84.30;;;;;;10830236;32;20016;-76
2023/06/06 23:50:11;;;;;;;8.60;5.65;;;20.90;84.30;;;;;;10830657;32;20394;-76
2023/06/06 23:56:13;;;;;;;5.15;3.62;;;20.90;84.20;;;;;;10902631;32;20066;-76
